Time;durP1;ratioP1;P1;durP2;ratioP2;P2;SDS_P1;SDS_P2;PMS_P1;PMS_P2;Temp;Humidity;BMP_temperature;BMP_pressure;BME280_temperature;BME280_humidity;BME280_pressure;Samples;Min_cycle;Max_cycle;Signal;HPM_P1;HPM_P2
2021/12/13 00:01:35;;;;;;;;;;;10.70;99.90;;;;;;5012361;28;20046;-75
2021/12/13 00:08:43;;;;;;;112.60;38.90;;;10.70;99.90;;;;;;5009465;28;20045;-75
2021/12/13 00:11:24;;;;;;;104.78;37.97;;;10.70;99.90;;;;;;5010571;28;20391;-75
2021/12/13 00:15:06;;;;;;;100.80;38.63;;;10.70;99.90;;;;;;5030246;28;20150;-75
2021/12/13 00:19:02;;;;;;;104.90;37.00;;;10.80;99.90;;;;;;4971762;28;20053;-75
2021/12/13 00:21:38;;;;;;;96.53;38.00;;;10.70;99.90;;;;;;4955185;28;20208;-75
2021/12/13 00:25:20;;;;;;;102.90;38.08;;;10.70;99.90;;;;;;4959559;28;20074;-75
2021/12/13 00:28:25;;;;;;;99.40;38.67;;;10.70;99.90;;;;;;4970043;28;20081;-75
2021/12/13 00:31:40;;;;;;;110.97;42.25;;;10.70;99.90;;;;;;4949932;28;20049;-75
2021/12/13 00:35:15;;;;;;;115.43;40.63;;;10.70;99.90;;;;;;4970284;28;20047;-75
2021/12/13 00:38:23;;;;;;;124.53;44.55;;;10.70;99.90;;;;;;4942859;28;20104;-75
2021/12/13 00:41:41;;;;;;;125.90;45.20;;;10.70;99.90;;;;;;5029438;28;20046;-75
2021/12/13 00:45:13;;;;;;;132.32;45.80;;;10.70;99.90;;;;;;4967022;28;20430;-75
2021/12/13 00:48:09;;;;;;;128.02;42.35;;;10.70;99.90;;;;;;5029281;28;20469;-75
2021/12/13 00:51:32;;;;;;;108.32;40.55;;;10.80;99.90;;;;;;4995300;28;20058;-75
2021/12/13 00:55:23;;;;;;;100.15;38.38;;;10.80;99.90;;;;;;5020359;28;20038;-75
2021/12/13 00:58:55;;;;;;;98.20;37.25;;;10.80;99.90;;;;;;5012526;28;20049;-75
2021/12/13 01:02:38;;;;;;;90.25;38.83;;;10.80;99.90;;;;;;4987979;28;20094;-75
2021/12/13 01:05:49;;;;;;;95.45;36.42;;;10.70;99.90;;;;;;4984833;28;20077;-75
2021/12/13 01:09:49;;;;;;;;;;;10.70;99.90;;;;;;5001141;28;20118;-75
2021/12/13 01:13:52;;;;;;;67.97;32.05;;;10.70;99.90;;;;;;4990931;28;20000;-75
2021/12/13 01:17:17;;;;;;;70.40;29.58;;;10.80;99.90;;;;;;4986832;28;20045;-74
2021/12/13 01:20:31;;;;;;;73.13;30.50;;;10.80;99.90;;;;;;5016474;28;20401;-75
2021/12/13 01:23:41;;;;;;;71.72;30.23;;;10.80;99.90;;;;;;4977820;28;21051;-75
2021/12/13 01:26:57;;;;;;;73.18;31.58;;;10.80;99.90;;;;;;5009572;28;20045;-75
2021/12/13 01:30:09;;;;;;;71.38;31.42;;;10.80;99.90;;;;;;5011856;28;21687;-75
2021/12/13 01:33:40;;;;;;;72.75;33.25;;;10.90;99.90;;;;;;5011736;28;20085;-75
2021/12/13 01:37:15;;;;;;;66.55;31.73;;;10.80;99.90;;;;;;5014942;28;20103;-75
2021/12/13 01:40:25;;;;;;;65.57;30.90;;;10.90;99.90;;;;;;4992260;28;20048;-74
2021/12/13 01:43:29;;;;;;;65.57;32.10;;;10.90;99.90;;;;;;5026369;28;20065;-74
2021/12/13 01:46:21;;;;;;;69.07;31.63;;;10.90;99.90;;;;;;5009332;28;20041;-75
2021/12/13 01:49:58;;;;;;;62.97;30.98;;;10.90;99.90;;;;;;5016558;28;20260;-74
2021/12/13 01:56:56;;;;;;;55.88;30.13;;;10.90;99.90;;;;;;5015006;28;20068;-75
2021/12/13 02:00:17;;;;;;;54.10;30.27;;;10.90;99.90;;;;;;5027593;28;20033;-74
2021/12/13 02:03:03;;;;;;;52.40;28.27;;;10.80;99.90;;;;;;5018389;28;20041;-75
2021/12/13 02:06:51;;;;;;;59.13;29.15;;;10.90;99.90;;;;;;5021014;28;20116;-75
2021/12/13 02:10:51;;;;;;;52.28;27.52;;;10.80;99.90;;;;;;5035592;28;20044;-75
2021/12/13 02:14:05;;;;;;;53.63;29.83;;;10.80;99.90;;;;;;4976494;28;20056;-75
2021/12/13 02:17:08;;;;;;;55.28;30.42;;;10.80;99.90;;;;;;5032277;28;20054;-75
2021/12/13 02:20:08;;;;;;;60.63;30.13;;;10.80;99.90;;;;;;4985641;28;20565;-75
2021/12/13 02:23:17;;;;;;;58.58;30.25;;;10.70;99.90;;;;;;4999670;28;20049;-75
2021/12/13 02:26:20;;;;;;;60.33;32.38;;;10.80;99.90;;;;;;5017881;28;20090;-75
2021/12/13 02:29:50;;;;;;;59.22;30.80;;;10.70;99.90;;;;;;4954285;28;20069;-75
2021/12/13 02:32:28;;;;;;;55.92;31.23;;;10.70;99.90;;;;;;4989287;28;20049;-75
2021/12/13 02:35:28;;;;;;;59.17;30.70;;;10.70;99.90;;;;;;4973626;28;20526;-75
2021/12/13 02:38:29;;;;;;;53.20;30.58;;;10.70;99.90;;;;;;4999632;28;20053;-75
2021/12/13 02:41:40;;;;;;;47.05;27.92;;;10.70;99.90;;;;;;5032011;28;20084;-75
2021/12/13 02:44:16;;;;;;;46.85;28.60;;;10.70;99.90;;;;;;4996013;28;20050;-75
2021/12/13 02:46:53;;;;;;;46.08;27.83;;;10.70;99.90;;;;;;4986445;28;20510;-75
2021/12/13 02:49:59;;;;;;;46.45;26.83;;;10.70;99.90;;;;;;5015150;28;20049;-75
2021/12/13 02:53:41;;;;;;;44.03;26.73;;;10.80;99.90;;;;;;5018593;28;20049;-75
2021/12/13 02:57:12;;;;;;;45.05;26.38;;;10.80;99.90;;;;;;4982799;28;20046;-75
2021/12/13 03:01:19;;;;;;;38.42;24.50;;;10.70;99.90;;;;;;4983903;28;20057;-75
2021/12/13 03:04:46;;;;;;;43.42;24.98;;;10.70;99.90;;;;;;4942484;29;20050;-75
2021/12/13 03:08:11;;;;;;;39.10;24.92;;;10.70;99.90;;;;;;4933931;28;20502;-75
2021/12/13 03:11:33;;;;;;;40.55;24.58;;;10.60;99.90;;;;;;4991442;28;20050;-75
2021/12/13 03:15:51;;;;;;;37.08;23.60;;;10.70;99.90;;;;;;5010270;28;20069;-75
2021/12/13 03:18:50;;;;;;;36.83;22.90;;;10.60;99.90;;;;;;5017769;28;20050;-75
2021/12/13 03:22:16;;;;;;;33.33;21.00;;;10.50;99.90;;;;;;5004234;28;20049;-75
2021/12/13 03:26:02;;;;;;;33.25;20.08;;;10.50;99.90;;;;;;5015173;28;20053;-75
2021/12/13 03:30:07;;;;;;;33.30;19.38;;;10.50;99.90;;;;;;5035090;28;20518;-75
2021/12/13 03:37:19;;;;;;;25.02;16.17;;;10.50;99.90;;;;;;4967342;28;20100;-75
2021/12/13 03:41:15;;;;;;;26.20;16.98;;;10.40;99.90;;;;;;5030866;28;20049;-75
2021/12/13 03:44:38;;;;;;;24.37;16.23;;;10.30;99.90;;;;;;5028061;28;20037;-75
2021/12/13 03:51:37;;;;;;;29.60;16.83;;;10.30;99.90;;;;;;4982272;28;20053;-75
2021/12/13 03:54:15;;;;;;;25.63;15.40;;;10.30;99.90;;;;;;4982378;28;20112;-75
2021/12/13 03:58:16;;;;;;;24.20;14.52;;;10.20;99.90;;;;;;4963143;28;20560;-75
2021/12/13 04:01:52;;;;;;;18.42;13.98;;;10.20;99.90;;;;;;4993776;28;20056;-75
2021/12/13 04:05:31;;;;;;;23.40;13.90;;;10.20;99.90;;;;;;4997249;28;20050;-75
2021/12/13 04:09:31;;;;;;;24.10;13.40;;;10.10;99.90;;;;;;4999044;28;20065;-75
2021/12/13 04:12:47;;;;;;;24.30;13.45;;;10.10;99.90;;;;;;5009822;28;20045;-75
2021/12/13 04:16:46;;;;;;;23.67;13.90;;;10.10;99.90;;;;;;5006011;28;20038;-75
2021/12/13 04:21:06;;;;;;;31.13;13.80;;;10.00;99.90;;;;;;5003140;28;20045;-75
2021/12/13 04:24:33;;;;;;;32.17;14.98;;;10.00;99.90;;;;;;4972199;28;20087;-75
2021/12/13 04:28:22;;;;;;;24.63;14.68;;;10.00;99.90;;;;;;4994641;28;20103;-75
2021/12/13 04:31:52;;;;;;;26.25;14.40;;;9.90;99.90;;;;;;5030055;28;20049;-75
2021/12/13 04:34:47;;;;;;;30.45;14.95;;;9.90;99.90;;;;;;5003553;28;20717;-75
2021/12/13 04:37:43;;;;;;;27.77;15.93;;;9.90;99.90;;;;;;4990550;28;20060;-75
2021/12/13 04:40:56;;;;;;;28.30;16.05;;;9.80;99.90;;;;;;4976745;28;20060;-75
2021/12/13 04:44:19;;;;;;;26.27;15.98;;;9.80;99.90;;;;;;5036038;28;20077;-75
2021/12/13 04:47:31;;;;;;;30.20;15.70;;;9.80;99.90;;;;;;4987439;28;20041;-75
2021/12/13 04:50:55;;;;;;;27.67;15.50;;;9.80;99.90;;;;;;5012753;28;20045;-75
2021/12/13 04:54:20;;;;;;;29.10;14.27;;;9.80;99.90;;;;;;4982315;28;20053;-75
2021/12/13 05:01:12;;;;;;;25.63;14.35;;;9.80;99.90;;;;;;4978854;28;20237;-75
2021/12/13 05:04:54;;;;;;;25.40;14.48;;;9.80;99.90;;;;;;4964492;28;20089;-75
2021/12/13 05:08:13;;;;;;;21.90;14.20;;;9.80;99.90;;;;;;4941102;29;20042;-75
2021/12/13 05:11:18;;;;;;;26.27;14.23;;;9.80;99.90;;;;;;4931848;28;20070;-75
2021/12/13 05:30:38;;;;;;;23.02;11.98;;;9.70;99.90;;;;;;4918179;29;20082;-75
2021/12/13 05:34:02;;;;;;;20.50;11.95;;;9.70;99.90;;;;;;4885239;29;20078;-75
2021/12/13 05:38:17;;;;;;;25.73;12.27;;;9.70;99.90;;;;;;4940226;28;20065;-75
2021/12/13 05:42:26;;;;;;;23.83;13.68;;;9.70;99.90;;;;;;4882768;29;20087;-75
2021/12/13 05:46:17;;;;;;;26.17;15.00;;;9.70;99.90;;;;;;4884727;29;20096;-75
2021/12/13 05:50:12;;;;;;;24.75;14.88;;;9.70;99.90;;;;;;4791912;29;20054;-75
2021/12/13 05:53:38;;;;;;;25.05;15.57;;;9.70;99.90;;;;;;4794586;29;20171;-75
2021/12/13 05:56:40;;;;;;;27.30;16.58;;;9.70;99.90;;;;;;4869264;29;20064;-75
2021/12/13 06:01:05;;;;;;;31.65;17.00;;;9.70;99.90;;;;;;4841839;29;20051;-75
2021/12/13 06:05:06;;;;;;;28.83;18.27;;;9.70;99.90;;;;;;4794823;29;20175;-75
2021/12/13 06:08:34;;;;;;;26.08;17.95;;;9.70;99.90;;;;;;4834123;29;20053;-75
2021/12/13 06:12:11;;;;;;;31.55;19.17;;;9.70;99.90;;;;;;4848819;29;20053;-75
2021/12/13 06:16:30;;;;;;;33.35;18.55;;;9.70;99.90;;;;;;4857236;29;20083;-75
2021/12/13 06:20:28;;;;;;;34.53;20.15;;;9.70;99.90;;;;;;4845381;29;20061;-75
2021/12/13 06:24:16;;;;;;;33.28;20.48;;;9.70;99.90;;;;;;4853846;29;20452;-75
2021/12/13 06:28:07;;;;;;;33.30;22.63;;;9.70;99.90;;;;;;4847749;29;20058;-75
2021/12/13 06:31:34;;;;;;;37.88;22.63;;;9.60;99.90;;;;;;4872617;29;20076;-75
2021/12/13 06:35:27;;;;;;;39.47;23.65;;;9.60;99.90;;;;;;4911388;29;20066;-75
2021/12/13 06:46:10;;;;;;;47.05;27.52;;;9.60;99.90;;;;;;4886262;29;20120;-75
2021/12/13 06:53:11;;;;;;;54.22;29.15;;;9.60;99.90;;;;;;4967099;28;20073;-75
2021/12/13 07:00:55;;;;;;;51.65;30.63;;;9.60;99.90;;;;;;4871554;29;20045;-76
2021/12/13 07:04:46;;;;;;;50.28;30.40;;;9.60;99.90;;;;;;4927616;28;20041;-75
2021/12/13 07:08:07;;;;;;;51.25;31.15;;;9.60;99.90;;;;;;5023968;28;20507;-75
2021/12/13 07:10:41;;;;;;;53.83;32.88;;;9.60;99.90;;;;;;5010729;28;20507;-75
2021/12/13 07:13:38;;;;;;;52.97;32.58;;;9.60;99.90;;;;;;5006883;28;20049;-75
2021/12/13 07:16:06;;;;;;;56.28;33.50;;;9.60;99.90;;;;;;5013679;28;20095;-75
2021/12/13 07:18:46;;;;;;;59.05;34.33;;;9.70;99.90;;;;;;5013528;28;20395;-75
2021/12/13 07:21:29;;;;;;;57.40;33.42;;;9.60;99.90;;;;;;5010231;28;20555;-75
2021/12/13 07:24:28;;;;;;;55.70;34.15;;;9.60;99.90;;;;;;5012228;28;20046;-76
2021/12/13 07:27:05;;;;;;;55.25;34.47;;;9.60;99.90;;;;;;4991982;28;20651;-75
2021/12/13 07:29:37;;;;;;;59.75;35.10;;;9.70;99.90;;;;;;5004253;28;20454;-75
2021/12/13 07:32:14;;;;;;;60.40;34.90;;;9.70;99.90;;;;;;5013842;28;20444;-75
2021/12/13 07:35:10;;;;;;;57.47;35.58;;;9.70;99.90;;;;;;5008826;28;20132;-76
2021/12/13 07:37:38;;;;;;;63.33;37.35;;;9.70;99.90;;;;;;4992264;28;20409;-76
2021/12/13 07:40:24;;;;;;;62.38;37.47;;;9.70;99.90;;;;;;4990845;28;20587;-76
2021/12/13 07:42:55;;;;;;;58.83;36.50;;;9.60;99.90;;;;;;5024396;28;20037;-77
2021/12/13 07:45:39;;;;;;;59.97;36.28;;;9.60;99.90;;;;;;4998771;28;20438;-76
2021/12/13 07:48:13;;;;;;;64.30;37.28;;;9.60;99.90;;;;;;5005048;28;20073;-76
2021/12/13 07:50:42;;;;;;;62.78;38.50;;;9.60;99.90;;;;;;4980278;28;20496;-76
2021/12/13 07:53:11;;;;;;;66.68;38.53;;;9.60;99.90;;;;;;5014386;28;20068;-76
2021/12/13 07:55:46;;;;;;;63.13;38.85;;;9.70;99.90;;;;;;5013923;28;20049;-76
2021/12/13 07:58:17;;;;;;;63.80;38.20;;;9.60;99.90;;;;;;5014105;28;20041;-76
2021/12/13 08:00:45;;;;;;;62.65;37.50;;;9.60;99.90;;;;;;4997715;28;20038;-76
2021/12/13 08:03:15;;;;;;;61.80;38.13;;;9.60;99.90;;;;;;5012347;28;20045;-76
2021/12/13 08:05:48;;;;;;;60.58;37.85;;;9.60;99.90;;;;;;5001865;28;20484;-77
2021/12/13 08:08:34;;;;;;;65.13;39.53;;;9.50;99.90;;;;;;5011465;28;20046;-77
2021/12/13 08:11:00;;;;;;;68.95;37.50;;;9.60;99.90;;;;;;5009905;28;20049;-76
2021/12/13 08:13:30;;;;;;;68.88;38.95;;;9.60;99.90;;;;;;4985724;28;20042;-76
2021/12/13 08:16:03;;;;;;;64.65;40.03;;;9.60;99.90;;;;;;5012770;28;20049;-76
2021/12/13 08:18:36;;;;;;;60.60;37.25;;;9.60;99.90;;;;;;5012690;28;20080;-76
2021/12/13 08:21:26;;;;;;;61.88;37.55;;;9.60;99.90;;;;;;5017119;28;20038;-75
2021/12/13 08:24:00;;;;;;;64.00;37.10;;;9.60;99.90;;;;;;5002735;28;20076;-75
2021/12/13 08:26:34;;;;;;;62.10;37.55;;;9.60;99.90;;;;;;5012465;28;20056;-76
2021/12/13 08:29:08;;;;;;;60.95;36.97;;;9.60;99.90;;;;;;5011992;28;20029;-77
2021/12/13 08:31:35;;;;;;;57.88;35.47;;;9.60;99.90;;;;;;4994140;28;20040;-76
2021/12/13 08:34:11;;;;;;;56.03;35.08;;;9.60;99.90;;;;;;4978354;28;20062;-76
2021/12/13 08:36:39;;;;;;;56.40;36.42;;;9.70;99.90;;;;;;5003578;28;20610;-76
2021/12/13 08:39:15;;;;;;;53.15;34.42;;;9.60;99.90;;;;;;5011485;28;20042;-76
2021/12/13 08:41:55;;;;;;;49.08;34.67;;;9.70;99.90;;;;;;4997887;28;20163;-76
2021/12/13 08:44:32;;;;;;;49.88;33.72;;;9.70;99.90;;;;;;5013341;28;20173;-76
2021/12/13 08:47:06;;;;;;;51.58;32.63;;;9.70;99.90;;;;;;5000719;28;20485;-76
2021/12/13 08:49:43;;;;;;;44.47;31.05;;;9.70;99.90;;;;;;4999938;28;20087;-76
2021/12/13 08:52:32;;;;;;;51.08;32.83;;;9.60;99.90;;;;;;5010865;28;20042;-76
2021/12/13 08:54:58;;;;;;;47.28;32.80;;;9.70;99.90;;;;;;5003552;28;20393;-76
2021/12/13 08:57:36;;;;;;;52.00;31.92;;;9.60;99.90;;;;;;5002388;28;20167;-76
2021/12/13 09:00:17;;;;;;;52.03;32.22;;;9.70;99.90;;;;;;5012037;28;20042;-76
2021/12/13 09:02:52;;;;;;;55.17;32.28;;;9.70;99.90;;;;;;4988927;28;20037;-75
2021/12/13 09:05:26;;;;;;;78.80;36.08;;;9.60;99.90;;;;;;5009144;28;20033;-75
2021/12/13 09:07:58;;;;;;;67.07;33.17;;;9.60;99.90;;;;;;5008326;28;20037;-76
2021/12/13 09:10:45;;;;;;;47.83;31.02;;;9.60;99.90;;;;;;5018647;28;20053;-75
2021/12/13 09:13:14;;;;;;;47.67;30.75;;;9.70;99.90;;;;;;5008418;28;20050;-75
2021/12/13 09:15:41;;;;;;;43.22;29.15;;;9.70;99.90;;;;;;4991353;28;20041;-76
2021/12/13 09:18:09;;;;;;;44.22;30.20;;;9.70;99.90;;;;;;5007322;28;20045;-76
2021/12/13 09:20:41;;;;;;;44.53;29.05;;;9.70;99.90;;;;;;5007670;28;20034;-75
2021/12/13 09:23:06;;;;;;;47.28;28.65;;;9.70;99.90;;;;;;4990695;28;20049;-76
2021/12/13 09:25:47;;;;;;;45.35;28.60;;;9.70;99.90;;;;;;5006945;28;20046;-76
2021/12/13 09:28:22;;;;;;;44.88;29.52;;;9.70;99.90;;;;;;5006913;28;20091;-76
2021/12/13 09:30:55;;;;;;;50.22;29.13;;;9.70;99.90;;;;;;5011140;28;20041;-76
2021/12/13 09:33:34;;;;;;;42.90;27.73;;;9.80;99.90;;;;;;4996816;28;20042;-76
2021/12/13 09:36:30;;;;;;;43.17;26.88;;;9.80;99.90;;;;;;4996139;28;20083;-76
2021/12/13 09:39:06;;;;;;;44.78;27.85;;;9.80;99.90;;;;;;5013881;28;20084;-77
2021/12/13 09:41:45;;;;;;;46.88;27.80;;;9.80;99.90;;;;;;5016006;28;20042;-76
2021/12/13 09:44:11;;;;;;;40.25;26.30;;;9.80;99.90;;;;;;4999553;28;20157;-77
2021/12/13 09:47:04;;;;;;;39.13;27.23;;;9.80;99.90;;;;;;5015447;28;20037;-77
2021/12/13 09:50:06;;;;;;;40.33;25.35;;;9.90;99.90;;;;;;5000171;28;20048;-77
2021/12/13 09:52:33;;;;;;;36.97;25.23;;;9.90;99.90;;;;;;5001081;28;20174;-77
2021/12/13 09:55:15;;;;;;;39.55;25.45;;;9.90;99.90;;;;;;4996246;28;20575;-77
2021/12/13 09:57:56;;;;;;;39.17;26.27;;;9.90;99.90;;;;;;5007082;28;20048;-77
2021/12/13 10:00:41;;;;;;;35.20;24.10;;;9.90;99.90;;;;;;5016219;28;20076;-77
2021/12/13 10:03:17;;;;;;;35.63;24.23;;;10.00;99.90;;;;;;5014732;28;20399;-76
2021/12/13 10:05:46;;;;;;;34.08;23.42;;;10.00;99.90;;;;;;4996611;28;20068;-77
2021/12/13 10:08:16;;;;;;;36.17;24.20;;;10.00;99.90;;;;;;5015999;28;20073;-77
2021/12/13 10:11:01;;;;;;;35.83;22.40;;;10.00;99.90;;;;;;5015786;28;20049;-75
2021/12/13 10:13:31;;;;;;;40.63;22.48;;;10.00;99.90;;;;;;5002927;28;20391;-75
2021/12/13 10:16:07;;;;;;;36.25;23.67;;;10.00;99.90;;;;;;4995377;28;20041;-75
2021/12/13 10:18:34;;;;;;;34.58;23.08;;;10.10;99.90;;;;;;5003089;28;20043;-75
2021/12/13 10:21:11;;;;;;;33.28;23.08;;;10.10;99.90;;;;;;5009745;28;20053;-75
2021/12/13 10:23:44;;;;;;;30.48;21.80;;;10.00;99.90;;;;;;5005805;28;20049;-75
2021/12/13 10:26:12;;;;;;;33.33;22.33;;;10.10;99.90;;;;;;4981902;28;20045;-76
2021/12/13 10:28:41;;;;;;;34.63;22.42;;;10.10;99.90;;;;;;5005502;28;20056;-76
2021/12/13 10:31:18;;;;;;;31.27;21.85;;;10.10;99.90;;;;;;5005610;28;20047;-75
2021/12/13 10:33:46;;;;;;;33.00;20.98;;;10.20;99.90;;;;;;4991981;28;20045;-75
2021/12/13 10:36:13;;;;;;;32.70;21.80;;;10.10;99.90;;;;;;4990898;28;20396;-77
2021/12/13 10:38:48;;;;;;;32.35;21.00;;;10.20;99.90;;;;;;4977401;28;20073;-75
2021/12/13 10:41:19;;;;;;;29.70;20.60;;;10.10;99.90;;;;;;4999888;28;20088;-74
2021/12/13 10:43:49;;;;;;;29.13;20.75;;;10.20;99.90;;;;;;5006431;28;20041;-75
2021/12/13 10:46:21;;;;;;;30.77;20.23;;;10.20;99.90;;;;;;5013974;28;20037;-75
2021/12/13 10:48:58;;;;;;;28.50;20.70;;;10.20;99.90;;;;;;5013256;28;20042;-75
2021/12/13 10:51:51;;;;;;;28.60;20.08;;;10.20;99.90;;;;;;5011269;28;20502;-74
2021/12/13 10:54:19;;;;;;;29.98;19.50;;;10.30;99.90;;;;;;5004414;28;20033;-74
2021/12/13 10:57:01;;;;;;;28.20;19.48;;;10.30;99.90;;;;;;5008364;28;20041;-74
2021/12/13 10:59:32;;;;;;;30.08;19.88;;;10.30;99.90;;;;;;5002862;28;20048;-74
2021/12/13 11:02:20;;;;;;;30.80;19.30;;;10.30;99.90;;;;;;5003712;28;20037;-74
2021/12/13 11:04:59;;;;;;;28.70;19.50;;;10.30;99.90;;;;;;5009201;28;20120;-74
2021/12/13 11:07:26;;;;;;;27.17;18.95;;;10.20;99.90;;;;;;5008787;28;20044;-74
2021/12/13 11:09:55;;;;;;;30.60;19.80;;;10.30;99.90;;;;;;5010170;28;20041;-74
2021/12/13 11:12:27;;;;;;;27.33;19.67;;;10.30;99.90;;;;;;5006942;28;20083;-75
2021/12/13 11:14:56;;;;;;;28.80;18.75;;;10.30;99.90;;;;;;5005717;28;20077;-74
2021/12/13 11:17:25;;;;;;;25.70;18.60;;;10.30;99.90;;;;;;5013472;28;20052;-74
2021/12/13 11:19:56;;;;;;;25.55;18.48;;;10.30;99.90;;;;;;5008953;28;20590;-74
2021/12/13 11:22:34;;;;;;;23.52;17.60;;;10.30;99.90;;;;;;5004787;28;20049;-74
2021/12/13 11:25:06;;;;;;;24.67;18.52;;;10.30;99.90;;;;;;5012462;28;20508;-74
2021/12/13 11:27:33;;;;;;;26.83;18.80;;;10.30;99.90;;;;;;5014825;28;20088;-74
2021/12/13 11:30:02;;;;;;;27.35;18.80;;;10.30;99.90;;;;;;5008346;28;20037;-74
2021/12/13 11:32:40;;;;;;;24.05;17.52;;;10.20;99.90;;;;;;5006014;28;20439;-74
2021/12/13 11:35:15;;;;;;;24.52;18.25;;;10.30;99.90;;;;;;4997123;28;20054;-74
2021/12/13 11:38:16;;;;;;;25.38;18.92;;;10.30;99.90;;;;;;5005708;28;20042;-74
2021/12/13 11:41:09;;;;;;;25.33;17.83;;;10.30;99.90;;;;;;5002819;28;20042;-75
2021/12/13 11:43:54;;;;;;;27.60;18.35;;;10.30;99.90;;;;;;5021958;28;20120;-74
2021/12/13 11:46:41;;;;;;;26.45;17.92;;;10.30;99.90;;;;;;5006873;28;20029;-74
2021/12/13 11:49:48;;;;;;;27.13;17.63;;;10.30;99.90;;;;;;5004627;28;20072;-74
2021/12/13 11:52:32;;;;;;;26.60;18.73;;;10.30;99.90;;;;;;5002934;28;20052;-74
2021/12/13 11:55:35;;;;;;;26.48;18.73;;;10.30;99.90;;;;;;4992667;28;20050;-75
2021/12/13 11:58:39;;;;;;;24.52;17.88;;;10.30;99.90;;;;;;5004786;28;20127;-75
2021/12/13 12:01:39;;;;;;;26.45;17.92;;;10.30;99.90;;;;;;5012056;28;20124;-75
2021/12/13 12:04:31;;;;;;;31.15;19.17;;;10.30;99.90;;;;;;5006940;28;20124;-75
2021/12/13 12:07:21;;;;;;;23.95;17.52;;;10.20;99.90;;;;;;4983518;28;20041;-75
2021/12/13 12:09:59;;;;;;;27.05;17.83;;;10.30;99.90;;;;;;5004509;28;20115;-75
2021/12/13 12:12:49;;;;;;;25.67;17.85;;;10.20;99.90;;;;;;5006653;28;20057;-75
2021/12/13 12:15:15;;;;;;;26.55;17.77;;;10.30;99.90;;;;;;4996084;28;20385;-75
2021/12/13 12:17:41;;;;;;;33.42;19.52;;;10.30;99.90;;;;;;5008739;28;20077;-75
2021/12/13 12:20:11;;;;;;;25.67;17.98;;;10.30;99.90;;;;;;5009657;28;20101;-75
2021/12/13 12:22:58;;;;;;;27.55;18.73;;;10.30;99.90;;;;;;5010740;28;20075;-75
2021/12/13 12:25:32;;;;;;;25.02;18.50;;;10.30;99.90;;;;;;5005974;28;20087;-75
2021/12/13 12:28:14;;;;;;;27.67;18.27;;;10.20;99.90;;;;;;5011769;28;20033;-74
2021/12/13 12:30:42;;;;;;;;;;;10.20;99.90;;;;;;4999453;28;20033;-74
2021/12/13 12:33:10;;;;;;;29.33;18.50;;;10.20;99.90;;;;;;5004237;28;19966;-74
2021/12/13 12:35:47;;;;;;;27.50;18.17;;;10.20;99.90;;;;;;5003625;28;20037;-74
2021/12/13 12:38:17;;;;;;;24.92;17.48;;;10.20;99.90;;;;;;5009854;28;20053;-74
2021/12/13 12:41:06;;;;;;;23.55;18.23;;;10.20;99.90;;;;;;5009338;28;20045;-74
2021/12/13 12:43:36;;;;;;;24.50;17.60;;;10.20;99.90;;;;;;4994275;28;20037;-74
2021/12/13 12:46:06;;;;;;;26.33;18.25;;;10.30;99.90;;;;;;5001133;28;20069;-74
2021/12/13 12:48:38;;;;;;;28.00;18.75;;;10.30;99.90;;;;;;5000876;28;20037;-74
2021/12/13 12:51:17;;;;;;;32.00;19.08;;;10.30;99.90;;;;;;5011916;28;20076;-74
2021/12/13 12:53:51;;;;;;;28.73;18.73;;;10.30;99.90;;;;;;5018812;28;20032;-74
2021/12/13 12:56:34;;;;;;;38.28;19.63;;;10.40;99.90;;;;;;5009071;28;20044;-74
2021/12/13 12:59:09;;;;;;;24.53;17.63;;;10.40;99.90;;;;;;5017295;28;20037;-74
2021/12/13 13:01:58;;;;;;;22.73;17.33;;;10.40;99.90;;;;;;5011962;28;20082;-74
2021/12/13 13:04:58;;;;;;;23.70;17.52;;;10.40;99.90;;;;;;5011365;28;20092;-74
2021/12/13 13:07:30;;;;;;;23.80;17.67;;;10.40;99.90;;;;;;4972970;28;20053;-74
2021/12/13 13:13:10;;;;;;;24.95;17.65;;;10.40;99.90;;;;;;5005914;28;20057;-74
2021/12/13 13:15:46;;;;;;;22.70;16.42;;;10.50;99.90;;;;;;5007654;28;20041;-74
2021/12/13 13:18:20;;;;;;;24.00;16.88;;;10.50;99.90;;;;;;4989507;28;20407;-74
2021/12/13 13:20:50;;;;;;;24.20;16.73;;;10.50;99.90;;;;;;5010332;28;20053;-74
2021/12/13 13:23:16;;;;;;;25.58;16.92;;;10.50;99.90;;;;;;5008051;28;20212;-74
2021/12/13 13:25:49;;;;;;;22.35;15.65;;;10.50;99.90;;;;;;5014600;28;20038;-74
2021/12/13 13:28:16;;;;;;;;;;;10.50;99.90;;;;;;5013123;28;20042;-74
2021/12/13 13:30:52;;;;;;;24.95;16.88;;;10.50;99.90;;;;;;5009831;28;19924;-74
2021/12/13 13:33:46;;;;;;;25.27;17.20;;;10.50;99.90;;;;;;5012014;28;20077;-74
2021/12/13 13:36:23;;;;;;;23.52;15.93;;;10.50;99.90;;;;;;5010471;28;20050;-74
2021/12/13 13:38:49;;;;;;;21.30;16.02;;;10.50;99.90;;;;;;5012884;28;20049;-74
2021/12/13 13:41:20;;;;;;;23.60;16.30;;;10.50;99.90;;;;;;5007384;28;20053;-74
2021/12/13 13:43:49;;;;;;;23.85;17.33;;;10.50;99.90;;;;;;5012839;28;20041;-74
2021/12/13 13:46:18;;;;;;;24.70;17.60;;;10.50;99.90;;;;;;5012906;28;20042;-73
2021/12/13 13:48:44;;;;;;;27.98;19.13;;;10.50;99.90;;;;;;5013646;28;20037;-74
2021/12/13 13:51:14;;;;;;;33.63;21.92;;;10.50;99.90;;;;;;5013162;28;20053;-73
2021/12/13 13:53:49;;;;;;;34.08;23.05;;;10.50;99.90;;;;;;5012815;28;20087;-73
2021/12/13 13:56:23;;;;;;;27.85;21.00;;;10.50;99.90;;;;;;5011026;28;20053;-75
2021/12/13 13:58:52;;;;;;;30.15;21.42;;;10.50;99.90;;;;;;4994331;28;20042;-74
2021/12/13 14:01:20;;;;;;;27.35;19.48;;;10.50;99.90;;;;;;5011242;28;20072;-73
2021/12/13 14:03:56;;;;;;;26.83;19.08;;;10.40;99.90;;;;;;5023174;28;20044;-73
2021/12/13 14:06:40;;;;;;;25.38;18.35;;;10.50;99.90;;;;;;5005399;28;20030;-74
2021/12/13 14:09:09;;;;;;;21.85;16.08;;;10.40;99.90;;;;;;5009556;28;20113;-74
2021/12/13 14:11:48;;;;;;;21.75;16.55;;;10.40;99.90;;;;;;5007537;28;20121;-75
2021/12/13 14:14:15;;;;;;;23.23;15.25;;;10.40;99.90;;;;;;5011335;28;20037;-74
2021/12/13 14:16:49;;;;;;;20.77;14.95;;;10.40;99.90;;;;;;5009932;28;20037;-74
2021/12/13 14:19:26;;;;;;;21.65;15.77;;;10.40;99.90;;;;;;5009244;28;20038;-75
2021/12/13 14:21:52;;;;;;;21.70;15.15;;;10.40;99.90;;;;;;5008066;28;20037;-75
2021/12/13 14:24:18;;;;;;;20.20;14.70;;;10.40;99.90;;;;;;5013900;28;20045;-75
2021/12/13 14:26:43;;;;;;;22.55;14.90;;;10.30;99.90;;;;;;5009578;28;20038;-75
2021/12/13 14:29:10;;;;;;;19.65;14.88;;;10.30;99.90;;;;;;5014578;28;20049;-75
2021/12/13 14:31:47;;;;;;;20.80;14.18;;;10.20;99.90;;;;;;5014678;28;20086;-75
2021/12/13 14:34:20;;;;;;;21.50;13.95;;;10.20;99.90;;;;;;5009436;28;20034;-75
2021/12/13 14:36:56;;;;;;;25.45;15.55;;;10.20;99.90;;;;;;5012657;28;20049;-75
2021/12/13 14:39:29;;;;;;;24.80;15.00;;;10.20;99.90;;;;;;5005287;28;20037;-74
2021/12/13 14:42:06;;;;;;;19.83;13.90;;;10.10;99.90;;;;;;5014187;28;20046;-74
2021/12/13 14:44:43;;;;;;;18.85;14.38;;;10.10;99.90;;;;;;5016513;28;20037;-74
2021/12/13 14:47:16;;;;;;;21.88;14.25;;;10.10;99.90;;;;;;5011158;28;20501;-74
2021/12/13 14:49:58;;;;;;;19.90;14.52;;;10.00;99.90;;;;;;5011011;28;20041;-74
2021/12/13 14:52:26;;;;;;;18.80;13.88;;;10.00;99.90;;;;;;5008012;28;20034;-74
2021/12/13 14:54:55;;;;;;;23.27;15.20;;;10.00;99.90;;;;;;5011795;28;20570;-74
2021/12/13 14:57:24;;;;;;;20.48;14.40;;;9.90;99.90;;;;;;5009783;28;20048;-74
2021/12/13 14:59:54;;;;;;;21.40;14.93;;;9.90;99.90;;;;;;5003842;28;20509;-75
2021/12/13 15:02:36;;;;;;;20.85;14.68;;;9.90;99.90;;;;;;5010804;28;20530;-74
2021/12/13 15:05:07;;;;;;;20.58;15.05;;;9.90;99.90;;;;;;5010091;28;20503;-74
2021/12/13 15:07:37;;;;;;;23.75;14.80;;;9.90;99.90;;;;;;5013499;28;20484;-74
2021/12/13 15:10:31;;;;;;;21.23;14.80;;;9.90;99.90;;;;;;5008260;28;20037;-74
2021/12/13 15:12:59;;;;;;;25.58;15.88;;;9.90;99.90;;;;;;5021082;28;20037;-74
2021/12/13 15:15:36;;;;;;;22.10;14.20;;;9.90;99.90;;;;;;5006010;28;20575;-74
2021/12/13 15:18:13;;;;;;;21.17;14.80;;;9.80;99.90;;;;;;5010713;28;20033;-83
2021/12/13 15:20:46;;;;;;;20.73;15.02;;;9.80;99.90;;;;;;5004419;28;20042;-74
2021/12/13 15:23:29;;;;;;;22.00;14.60;;;9.80;99.90;;;;;;5011553;28;20376;-74
2021/12/13 15:26:08;;;;;;;21.40;14.95;;;9.70;99.90;;;;;;5009861;28;20424;-74
2021/12/13 15:28:44;;;;;;;21.05;15.57;;;9.70;99.90;;;;;;5009609;28;20665;-74
2021/12/13 15:31:17;;;;;;;24.08;15.48;;;9.70;99.90;;;;;;5013550;28;20053;-75
2021/12/13 15:33:45;;;;;;;23.98;14.55;;;9.70;99.90;;;;;;5013449;28;20430;-74
2021/12/13 15:36:13;;;;;;;19.55;14.55;;;9.70;99.90;;;;;;5011035;28;20044;-73
2021/12/13 15:38:42;;;;;;;19.58;14.32;;;9.70;99.90;;;;;;5006105;28;20686;-73
2021/12/13 15:41:10;;;;;;;23.08;14.73;;;9.70;99.90;;;;;;5028380;28;20455;-73